North Chili, New York
Current Conditions -  °F | °C
As of 5:54 PM on Monday 24 Nov 2014 (Local Time) from KROC Reporting Station
Broken Clouds Broken Clouds  
Wind Chill: 60°   Ceiling: 9000
Heat Index: 60°   Visibility: 10mi
Dew Point: 48°   Wind: 26mph
Humidity: 64%   Direction: 250°WSW
Pressure: 29.42"   Gusts: 39mph
Location:  43.12°N, 77.8°W
Report Text: KROC 242254Z 25023G34KT 10SM FEW045 BKN090 16/09 A2942 RMK AO2 PK WND 24034/2247 RAE2155 PRESRR SLP965 P0001 T01560089
Loading
Personal Weather Stations






























Interactive Weather Map New forecast layout! Learn more

10-Day Weather Forecast

Advertisements
Track Severe Weather on mobile